createdAt,value
2022-10-15T00:01:38.937Z,3.70
2022-10-15T00:04:05.570Z,3.28
2022-10-15T00:06:32.500Z,3.00
2022-10-15T00:08:59.170Z,2.60
2022-10-15T00:11:28.577Z,2.50
2022-10-15T00:16:25.990Z,3.00
2022-10-15T00:18:55.522Z,3.83
2022-10-15T00:21:22.144Z,2.78
2022-10-15T00:23:49.460Z,3.63
2022-10-15T00:26:18.814Z,4.10
2022-10-15T00:28:46.283Z,3.05
2022-10-15T00:31:16.038Z,2.60
2022-10-15T00:33:43.958Z,2.92
2022-10-15T00:36:16.273Z,3.50
2022-10-15T00:38:43.520Z,4.53
2022-10-15T00:41:16.002Z,3.78
2022-10-15T00:43:54.729Z,3.50
2022-10-15T00:46:27.345Z,3.42
2022-10-15T00:51:35.545Z,3.35
2022-10-15T00:54:02.451Z,3.30
2022-10-15T00:56:32.748Z,3.38
2022-10-15T00:59:00.361Z,3.05
2022-10-15T01:01:27.199Z,2.83
2022-10-15T01:03:55.738Z,3.00
2022-10-15T01:06:23.454Z,3.50
2022-10-15T01:08:50.692Z,3.72
2022-10-15T01:11:39.666Z,3.53
2022-10-15T01:14:33.930Z,3.00
2022-10-15T01:17:25.940Z,3.15
2022-10-15T01:20:26.146Z,3.50
2022-10-15T01:23:26.705Z,4.57
2022-10-15T01:26:22.210Z,3.80
2022-10-15T01:29:16.125Z,4.72
2022-10-15T01:31:45.106Z,5.10
2022-10-15T01:34:24.346Z,3.30
2022-10-15T01:37:18.040Z,3.20
2022-10-15T01:39:56.182Z,3.35
2022-10-15T01:42:25.642Z,2.78
2022-10-15T01:47:27.952Z,2.40
2022-10-15T01:49:55.735Z,2.15
2022-10-15T01:52:27.554Z,2.47
2022-10-15T01:54:55.318Z,1.88
2022-10-15T01:57:25.961Z,2.00
2022-10-15T01:59:54.274Z,2.10
2022-10-15T02:02:21.137Z,1.80
2022-10-15T02:04:47.924Z,1.90
2022-10-15T02:07:49.889Z,1.95
2022-10-15T02:10:48.359Z,1.80
2022-10-15T02:13:45.741Z,1.93
2022-10-15T02:16:27.463Z,2.03
2022-10-15T02:19:18.774Z,1.95
2022-10-15T02:21:52.651Z,1.60
2022-10-15T02:24:25.671Z,1.60
2022-10-15T02:26:56.026Z,1.83
2022-10-15T02:29:25.570Z,1.83
2022-10-15T02:31:53.674Z,1.65
2022-10-15T02:34:22.799Z,1.65
2022-10-15T02:36:50.129Z,2.60
2022-10-15T02:39:22.365Z,2.92
2022-10-15T02:41:49.251Z,2.17
2022-10-15T02:44:15.910Z,3.30
2022-10-15T02:46:42.882Z,3.63
2022-10-15T02:49:09.494Z,2.17
2022-10-15T02:51:36.362Z,1.88
2022-10-15T02:54:04.814Z,2.35
2022-10-15T02:56:31.672Z,2.05
2022-10-15T02:58:58.409Z,1.90
2022-10-15T03:01:25.049Z,1.60
2022-10-15T03:03:51.755Z,1.70
2022-10-15T03:06:18.358Z,1.70
2022-10-15T03:08:44.976Z,1.30
2022-10-15T03:11:11.936Z,1.60
2022-10-15T03:13:39.485Z,1.30
2022-10-15T03:16:07.320Z,1.17
2022-10-15T03:18:36.828Z,1.60
2022-10-15T03:21:06.532Z,1.52
2022-10-15T03:26:04.858Z,1.90
2022-10-15T03:28:31.556Z,1.90
2022-10-15T03:30:58.238Z,1.75
2022-10-15T03:33:25.297Z,1.70
2022-10-15T03:35:53.304Z,1.70
2022-10-15T03:38:19.890Z,1.50
2022-10-15T03:40:46.944Z,1.40
2022-10-15T03:43:13.661Z,1.00
2022-10-15T03:45:40.640Z,1.50
2022-10-15T03:48:07.417Z,1.30
2022-10-15T03:50:34.810Z,1.10
2022-10-15T03:53:06.066Z,1.33
2022-10-15T03:55:33.445Z,1.27
2022-10-15T03:58:00.172Z,1.15
2022-10-15T04:00:29.032Z,1.52
2022-10-15T04:02:56.097Z,1.50
2022-10-15T04:05:22.676Z,1.30
2022-10-15T04:07:49.305Z,1.42
2022-10-15T04:10:15.861Z,1.00
2022-10-15T04:12:42.598Z,1.10
2022-10-15T04:15:09.618Z,1.10
2022-10-15T04:17:36.245Z,1.27
2022-10-15T04:20:02.932Z,1.23
2022-10-15T04:22:29.526Z,1.08
2022-10-15T04:24:56.103Z,1.30
2022-10-15T04:27:22.703Z,1.40
2022-10-15T04:29:49.287Z,1.23
2022-10-15T04:32:16.850Z,1.17
2022-10-15T04:34:43.742Z,1.05
2022-10-15T04:37:10.353Z,1.10
2022-10-15T04:39:36.929Z,1.02
2022-10-15T04:42:03.797Z,1.10
2022-10-15T04:44:30.393Z,1.20
2022-10-15T04:46:57.237Z,1.00
2022-10-15T04:49:24.024Z,0.90
2022-10-15T04:51:50.635Z,1.00
2022-10-15T04:54:17.582Z,1.40
2022-10-15T04:56:44.311Z,1.10
2022-10-15T04:59:11.093Z,1.00
2022-10-15T05:01:37.769Z,1.05
2022-10-15T05:04:04.529Z,1.10
2022-10-15T05:06:33.242Z,0.93
2022-10-15T05:08:59.905Z,1.10
2022-10-15T05:11:27.367Z,1.00
2022-10-15T05:13:57.968Z,1.02
2022-10-15T05:16:27.156Z,0.88
2022-10-15T05:18:58.436Z,0.80
2022-10-15T05:21:25.697Z,1.00
2022-10-15T05:23:52.380Z,1.20
2022-10-15T05:26:22.236Z,1.02
2022-10-15T05:28:49.794Z,1.02
2022-10-15T05:31:21.637Z,1.20
2022-10-15T05:33:49.747Z,0.98
2022-10-15T05:36:19.205Z,0.90
2022-10-15T05:41:13.094Z,1.10
2022-10-15T05:43:41.363Z,1.20
2022-10-15T05:46:08.797Z,0.87
2022-10-15T05:48:35.411Z,1.17
2022-10-15T05:51:03.872Z,1.10
2022-10-15T05:53:30.658Z,1.00
2022-10-15T05:56:01.109Z,1.10
2022-10-15T05:58:33.292Z,1.38
2022-10-15T06:01:04.217Z,1.48
2022-10-15T06:03:31.548Z,1.00
2022-10-15T06:05:58.166Z,1.20
2022-10-15T06:10:56.740Z,1.50
2022-10-15T06:13:23.601Z,1.30
2022-10-15T06:15:50.273Z,1.60
2022-10-15T06:18:16.877Z,1.33
2022-10-15T06:20:44.018Z,1.80
2022-10-15T06:23:11.957Z,1.40
2022-10-15T06:25:39.387Z,11.65
2022-10-15T06:28:06.916Z,6.93
2022-10-15T06:30:33.796Z,12.38
2022-10-15T06:33:00.593Z,1.70
2022-10-15T06:35:30.447Z,1.40
2022-10-15T06:38:03.086Z,2.25
2022-10-15T06:40:30.861Z,1.30
2022-10-15T06:43:11.425Z,1.40
2022-10-15T06:45:40.263Z,1.40
2022-10-15T06:48:07.721Z,1.70
2022-10-15T06:50:35.970Z,3.22
2022-10-15T06:53:02.621Z,3.25
2022-10-15T06:55:29.214Z,2.35
2022-10-15T06:57:57.062Z,1.70
2022-10-15T07:00:24.907Z,1.63
2022-10-15T07:02:51.850Z,1.50
2022-10-15T07:05:19.632Z,1.65
2022-10-15T07:07:56.686Z,1.83
2022-10-15T07:10:24.757Z,1.58
2022-10-15T07:12:51.349Z,2.08
2022-10-15T07:15:19.243Z,2.00
2022-10-15T07:17:50.145Z,3.40
2022-10-15T07:20:21.602Z,2.22
2022-10-15T07:22:51.056Z,6.63
2022-10-15T07:25:17.906Z,2.35
2022-10-15T07:27:44.843Z,2.35
2022-10-15T07:30:11.705Z,2.30
2022-10-15T07:32:38.475Z,1.98
2022-10-15T07:35:05.379Z,1.65
2022-10-15T07:37:32.038Z,1.30
2022-10-15T07:39:58.633Z,1.40
2022-10-15T07:42:25.590Z,1.70
2022-10-15T07:44:52.152Z,1.98
2022-10-15T07:47:18.931Z,2.00
2022-10-15T07:49:45.605Z,1.55
2022-10-15T07:52:12.422Z,1.50
2022-10-15T07:54:39.002Z,6.60
2022-10-15T07:57:07.191Z,1.80
2022-10-15T07:59:34.733Z,1.23
2022-10-15T08:02:01.553Z,1.40
2022-10-15T08:04:28.446Z,1.55
2022-10-15T08:06:55.688Z,1.65
2022-10-15T08:09:22.636Z,1.40
2022-10-15T08:11:49.198Z,1.40
2022-10-15T08:14:15.942Z,1.50
2022-10-15T08:16:42.540Z,1.65
2022-10-15T08:19:09.076Z,1.42
2022-10-15T08:21:35.659Z,1.30
2022-10-15T08:24:02.258Z,1.40
2022-10-15T08:26:28.900Z,1.40
2022-10-15T08:28:55.603Z,1.20
2022-10-15T08:31:22.281Z,1.40
2022-10-15T08:33:48.835Z,1.30
2022-10-15T08:36:15.445Z,1.20
2022-10-15T08:38:41.976Z,1.30
2022-10-15T08:41:49.130Z,1.20
2022-10-15T08:44:32.256Z,1.05
2022-10-15T08:47:01.930Z,1.08
2022-10-15T08:49:55.712Z,1.30
2022-10-15T08:52:29.290Z,1.20
2022-10-15T08:54:58.573Z,1.00
2022-10-15T08:57:47.166Z,1.10
2022-10-15T09:00:13.650Z,1.30
2022-10-15T09:02:52.761Z,1.30
2022-10-15T09:05:51.688Z,1.00
2022-10-15T09:08:55.656Z,1.05
2022-10-15T09:11:53.129Z,0.95
2022-10-15T09:14:25.053Z,0.88
2022-10-15T09:16:51.776Z,0.95
2022-10-15T09:19:21.055Z,1.27
2022-10-15T09:21:52.527Z,1.10
2022-10-15T09:24:24.589Z,0.82
2022-10-15T09:27:13.026Z,1.00
2022-10-15T09:30:05.982Z,0.80
2022-10-15T09:32:49.455Z,0.75
2022-10-15T09:35:26.468Z,1.10
2022-10-15T09:37:56.566Z,0.77
2022-10-15T09:40:44.552Z,0.90
2022-10-15T09:43:13.115Z,1.20
2022-10-15T09:45:39.648Z,1.17
2022-10-15T09:48:17.718Z,0.60
2022-10-15T09:50:50.747Z,0.68
2022-10-15T09:53:28.140Z,0.70
2022-10-15T09:56:14.664Z,0.70
2022-10-15T09:58:58.581Z,0.80
2022-10-15T10:01:30.530Z,0.80
2022-10-15T10:04:20.403Z,0.80
2022-10-15T10:06:52.458Z,0.50
2022-10-15T10:09:27.269Z,0.60
2022-10-15T10:11:56.739Z,0.50
2022-10-15T10:17:21.347Z,0.57
2022-10-15T10:20:17.720Z,1.38
2022-10-15T10:22:51.248Z,0.80
2022-10-15T10:25:27.790Z,0.60
2022-10-15T10:28:05.050Z,0.85
2022-10-15T10:30:42.764Z,0.57
2022-10-15T10:33:15.198Z,0.90
2022-10-15T10:35:50.211Z,0.80
2022-10-15T10:38:43.440Z,0.50
2022-10-15T10:41:11.835Z,0.80
2022-10-15T10:43:40.308Z,0.90
2022-10-15T10:46:15.792Z,0.70
2022-10-15T10:48:46.377Z,0.60
2022-10-15T10:51:22.316Z,0.90
2022-10-15T10:54:04.554Z,0.60
2022-10-15T10:56:35.384Z,0.70
2022-10-15T10:59:17.979Z,0.90
2022-10-15T11:01:44.617Z,0.77
2022-10-15T11:04:26.309Z,0.80
2022-10-15T11:07:01.849Z,0.63
2022-10-15T11:09:35.927Z,0.73
2022-10-15T11:12:08.266Z,0.70
2022-10-15T11:14:56.586Z,0.70
2022-10-15T11:17:54.108Z,0.88
2022-10-15T11:20:32.152Z,0.77
2022-10-15T11:23:45.772Z,0.60
2022-10-15T11:26:21.336Z,0.60
2022-10-15T11:29:11.433Z,0.60
2022-10-15T11:32:02.744Z,0.63
2022-10-15T11:35:01.555Z,0.60
2022-10-15T11:37:37.099Z,0.80
2022-10-15T11:40:41.295Z,0.60
2022-10-15T11:43:16.842Z,0.70
2022-10-15T11:46:08.051Z,0.70
2022-10-15T11:48:46.904Z,0.50
2022-10-15T11:51:27.635Z,0.70
2022-10-15T11:54:16.921Z,0.60
2022-10-15T11:59:42.274Z,0.70
2022-10-15T12:02:37.873Z,0.82
2022-10-15T12:05:09.209Z,0.75
2022-10-15T12:07:44.944Z,0.70
2022-10-15T12:10:47.021Z,0.90
2022-10-15T12:13:25.642Z,0.82
2022-10-15T12:16:04.341Z,0.80
2022-10-15T12:18:38.392Z,0.93
2022-10-15T12:21:38.494Z,0.88
2022-10-15T12:24:15.684Z,0.80
2022-10-15T12:26:42.377Z,0.73
2022-10-15T12:29:22.052Z,0.73
2022-10-15T12:31:58.020Z,0.68
2022-10-15T12:34:42.114Z,0.70
2022-10-15T12:37:19.417Z,0.65
2022-10-15T12:39:52.659Z,0.68
2022-10-15T12:42:35.761Z,0.50
2022-10-15T12:45:06.345Z,0.60
2022-10-15T12:47:54.246Z,0.50
2022-10-15T12:50:30.176Z,0.47
2022-10-15T12:53:02.424Z,0.40
2022-10-15T12:55:39.578Z,0.50
2022-10-15T12:58:32.891Z,0.30
2022-10-15T13:01:13.721Z,0.50
2022-10-15T13:03:52.200Z,0.30
2022-10-15T13:06:22.031Z,0.40
2022-10-15T13:08:57.649Z,0.70
2022-10-15T13:11:35.911Z,0.50
2022-10-15T13:14:26.566Z,0.90
2022-10-15T13:16:53.749Z,0.75
2022-10-15T13:19:30.169Z,0.60
2022-10-15T13:21:59.732Z,0.52
2022-10-15T13:24:28.564Z,0.50
2022-10-15T13:26:57.145Z,0.63
2022-10-15T13:29:27.621Z,0.60
2022-10-15T13:31:57.244Z,0.50
2022-10-15T13:34:34.776Z,0.50
2022-10-15T13:37:04.080Z,0.65
2022-10-15T13:42:13.220Z,0.60
2022-10-15T13:44:40.286Z,0.50
2022-10-15T13:47:31.381Z,0.57
2022-10-15T13:50:20.267Z,0.88
2022-10-15T13:53:19.453Z,0.93
2022-10-15T13:58:27.425Z,0.80
2022-10-15T14:01:14.861Z,0.70
2022-10-15T14:03:47.291Z,1.25
2022-10-15T14:06:29.273Z,1.10
2022-10-15T14:09:16.008Z,0.90
2022-10-15T14:11:42.840Z,1.40
2022-10-15T14:14:39.878Z,0.85
2022-10-15T14:17:10.198Z,0.70
2022-10-15T14:19:39.053Z,0.80
2022-10-15T14:22:06.348Z,0.65
2022-10-15T14:24:35.849Z,0.77
2022-10-15T14:27:08.275Z,0.70
2022-10-15T14:29:43.165Z,0.60
2022-10-15T14:32:29.165Z,0.60
2022-10-15T14:35:00.202Z,0.90
2022-10-15T14:37:35.958Z,0.80
2022-10-15T14:40:09.551Z,0.70
2022-10-15T14:43:04.470Z,0.75
2022-10-15T14:45:42.248Z,0.82
2022-10-15T14:48:27.533Z,0.80
2022-10-15T14:50:59.572Z,0.60
2022-10-15T14:53:29.144Z,0.82
2022-10-15T14:56:07.931Z,0.93
2022-10-15T14:58:34.990Z,0.82
2022-10-15T15:01:05.051Z,0.70
2022-10-15T15:03:39.958Z,0.60
2022-10-15T15:06:07.558Z,0.93
2022-10-15T15:08:34.174Z,1.10
2022-10-15T15:11:04.628Z,0.82
2022-10-15T15:13:38.589Z,1.05
2022-10-15T15:16:05.554Z,1.20
2022-10-15T15:18:32.489Z,1.10
2022-10-15T15:21:03.108Z,0.57
2022-10-15T15:23:30.297Z,0.57
2022-10-15T15:25:56.857Z,0.90
2022-10-15T15:28:25.637Z,0.80
2022-10-15T15:31:02.526Z,0.90
2022-10-15T15:33:29.265Z,0.90
2022-10-15T15:36:01.733Z,0.60
2022-10-15T15:38:31.188Z,1.30
2022-10-15T15:41:17.670Z,1.02
2022-10-15T15:43:45.715Z,1.10
2022-10-15T15:46:13.168Z,1.50
2022-10-15T15:48:40.121Z,1.70
2022-10-15T15:51:10.527Z,1.63
2022-10-15T15:53:37.070Z,1.23
2022-10-15T15:56:03.677Z,1.00
2022-10-15T15:58:30.254Z,0.80
2022-10-15T16:00:56.900Z,0.73
2022-10-15T16:03:23.474Z,0.63
2022-10-15T16:08:22.707Z,0.82
2022-10-15T16:10:49.329Z,1.30
2022-10-15T16:13:15.976Z,0.60
2022-10-15T16:15:42.581Z,0.80
2022-10-15T16:18:09.472Z,1.17
2022-10-15T16:20:39.539Z,0.98
2022-10-15T16:23:06.442Z,0.70
2022-10-15T16:25:33.099Z,0.70
2022-10-15T16:28:01.850Z,0.70
2022-10-15T16:30:29.162Z,0.80
2022-10-15T16:32:55.964Z,0.70
2022-10-15T16:35:22.924Z,0.57
2022-10-15T16:37:52.252Z,1.23
2022-10-15T16:42:45.756Z,0.60
2022-10-15T16:45:13.368Z,1.08
2022-10-15T16:47:39.963Z,0.70
2022-10-15T16:50:07.334Z,0.50
2022-10-15T16:52:34.576Z,0.60
2022-10-15T16:55:01.118Z,0.55
2022-10-15T16:57:27.700Z,0.60
2022-10-15T16:59:54.346Z,0.70
2022-10-15T17:02:20.966Z,0.70
2022-10-15T17:04:47.541Z,0.80
2022-10-15T17:07:14.250Z,1.25
2022-10-15T17:09:41.312Z,2.90
2022-10-15T17:12:07.945Z,0.80
2022-10-15T17:14:34.587Z,0.40
2022-10-15T17:17:01.098Z,1.02
2022-10-15T17:19:30.573Z,0.50
2022-10-15T17:22:00.647Z,0.55
2022-10-15T17:24:27.322Z,1.10
2022-10-15T17:26:54.934Z,0.80
2022-10-15T17:29:23.075Z,0.73
2022-10-15T17:31:50.854Z,0.50
2022-10-15T17:34:18.150Z,0.70
2022-10-15T17:36:47.349Z,0.47
2022-10-15T17:39:17.188Z,0.50
2022-10-15T17:41:43.981Z,0.40
2022-10-15T17:44:11.761Z,0.60
2022-10-15T17:46:39.463Z,0.55
2022-10-15T17:49:07.989Z,0.70
2022-10-15T17:51:34.913Z,0.60
2022-10-15T17:54:02.604Z,0.60
2022-10-15T17:56:35.271Z,0.60
2022-10-15T17:59:06.515Z,0.90
2022-10-15T18:04:24.465Z,0.80
2022-10-15T18:06:51.226Z,0.70
2022-10-15T18:09:17.909Z,0.70
2022-10-15T18:11:46.575Z,0.75
2022-10-15T18:14:13.280Z,0.88
2022-10-15T18:16:39.949Z,0.63
2022-10-15T18:19:07.172Z,0.90
2022-10-15T18:21:33.984Z,0.90
2022-10-15T18:24:00.894Z,0.60
2022-10-15T18:26:27.567Z,0.80
2022-10-15T18:28:54.241Z,0.60
2022-10-15T18:31:21.737Z,0.82
2022-10-15T18:33:52.087Z,1.00
2022-10-15T18:36:23.263Z,0.82
2022-10-15T18:38:50.354Z,0.80
2022-10-15T18:41:17.899Z,0.57
2022-10-15T18:43:51.585Z,0.75
2022-10-15T18:46:18.233Z,0.60
2022-10-15T18:48:45.142Z,0.75
2022-10-15T18:51:11.961Z,1.30
2022-10-15T18:53:39.510Z,0.73
2022-10-15T18:56:07.762Z,0.63
2022-10-15T18:58:34.723Z,0.63
2022-10-15T19:01:26.757Z,0.70
2022-10-15T19:03:57.956Z,0.50
2022-10-15T19:06:28.805Z,0.60
2022-10-15T19:08:59.685Z,0.60
2022-10-15T19:11:26.701Z,0.70
2022-10-15T19:13:53.383Z,0.50
2022-10-15T19:16:19.978Z,0.90
2022-10-15T19:18:46.510Z,0.55
2022-10-15T19:21:13.234Z,0.60
2022-10-15T19:23:39.854Z,0.60
2022-10-15T19:26:08.257Z,0.60
2022-10-15T19:28:35.422Z,0.60
2022-10-15T19:31:04.186Z,0.90
2022-10-15T19:33:31.565Z,0.70
2022-10-15T19:35:58.522Z,0.57
2022-10-15T19:38:25.823Z,0.63
2022-10-15T19:40:53.308Z,0.50
2022-10-15T19:43:22.072Z,1.15
2022-10-15T19:45:49.020Z,3.00
2022-10-15T19:48:18.408Z,1.30
2022-10-15T19:53:16.457Z,1.20
2022-10-15T19:55:44.555Z,1.40
2022-10-15T19:58:11.708Z,1.55
2022-10-15T20:00:38.360Z,0.70
2022-10-15T20:03:05.020Z,0.60
2022-10-15T20:05:31.602Z,0.80
2022-10-15T20:07:58.185Z,0.70
2022-10-15T20:10:26.147Z,0.57
2022-10-15T20:12:53.481Z,0.70
2022-10-15T20:15:20.212Z,0.50
2022-10-15T20:17:47.294Z,0.85
2022-10-15T20:20:13.858Z,0.47
2022-10-15T20:22:40.459Z,0.90
2022-10-15T20:25:07.270Z,0.60
2022-10-15T20:27:33.957Z,0.68
2022-10-15T20:30:00.552Z,0.50
2022-10-15T20:32:34.622Z,0.55
2022-10-15T20:35:02.330Z,0.68
2022-10-15T20:37:29.096Z,0.60
2022-10-15T20:42:23.357Z,0.50
2022-10-15T20:44:50.100Z,0.80
2022-10-15T20:47:16.866Z,0.80
2022-10-15T20:49:46.820Z,0.90
2022-10-15T20:52:14.423Z,0.80
2022-10-15T20:54:41.380Z,0.47
2022-10-15T20:57:08.174Z,0.60
2022-10-15T20:59:34.706Z,0.63
2022-10-15T21:02:01.324Z,0.55
2022-10-15T21:04:27.920Z,0.70
2022-10-15T21:06:54.512Z,0.50
2022-10-15T21:09:21.092Z,0.43
2022-10-15T21:11:47.725Z,0.50
2022-10-15T21:14:14.578Z,0.47
2022-10-15T21:16:41.417Z,0.80
2022-10-15T21:19:08.528Z,0.68
2022-10-15T21:21:35.264Z,0.70
2022-10-15T21:24:01.809Z,0.77
2022-10-15T21:26:28.338Z,0.80
2022-10-15T21:28:56.630Z,0.57
2022-10-15T21:31:23.655Z,0.50
2022-10-15T21:33:50.787Z,0.73
2022-10-15T21:36:22.168Z,0.60
2022-10-15T21:38:53.049Z,0.55
2022-10-15T21:41:20.049Z,0.43
2022-10-15T21:43:46.720Z,0.88
2022-10-15T21:46:14.963Z,0.60
2022-10-15T21:48:42.840Z,0.70
2022-10-15T21:51:15.373Z,0.60
2022-10-15T21:53:42.908Z,0.60
2022-10-15T21:56:10.466Z,0.60
2022-10-15T21:58:38.799Z,0.63
2022-10-15T22:01:21.951Z,0.60
2022-10-15T22:03:50.243Z,0.88
2022-10-15T22:06:17.746Z,0.80
2022-10-15T22:08:44.900Z,0.65
2022-10-15T22:11:13.121Z,0.60
2022-10-15T22:13:40.940Z,0.68
2022-10-15T22:16:08.471Z,0.60
2022-10-15T22:18:35.176Z,0.75
2022-10-15T22:21:30.627Z,0.70
2022-10-15T22:24:06.497Z,0.50
2022-10-15T22:26:36.367Z,2.28
2022-10-15T22:29:05.678Z,1.60
2022-10-15T22:34:00.069Z,1.10
2022-10-15T22:36:29.081Z,1.30
2022-10-15T22:39:03.518Z,1.10
2022-10-15T22:41:32.135Z,0.70
2022-10-15T22:43:59.396Z,0.73
2022-10-15T22:46:26.687Z,0.90
2022-10-15T22:48:53.786Z,0.70
2022-10-15T22:51:21.167Z,0.80
2022-10-15T22:53:48.063Z,0.70
2022-10-15T22:56:17.546Z,0.90
2022-10-15T23:01:13.873Z,0.80
2022-10-15T23:06:08.245Z,0.90
2022-10-15T23:08:35.421Z,0.80
2022-10-15T23:11:15.705Z,0.75
2022-10-15T23:13:43.731Z,0.98
2022-10-15T23:16:19.745Z,0.90
2022-10-15T23:18:48.401Z,0.80
2022-10-15T23:21:18.401Z,0.70
2022-10-15T23:23:45.957Z,0.85
2022-10-15T23:26:15.094Z,0.80
2022-10-15T23:28:43.240Z,0.80
2022-10-15T23:31:17.117Z,0.90
2022-10-15T23:33:44.228Z,0.80
2022-10-15T23:36:10.778Z,0.77
2022-10-15T23:38:37.317Z,0.80
2022-10-15T23:41:06.602Z,0.80
2022-10-15T23:43:33.809Z,0.82
2022-10-15T23:46:00.888Z,0.90
2022-10-15T23:48:28.300Z,0.80
2022-10-15T23:50:59.403Z,1.00
2022-10-15T23:53:29.308Z,0.88
2022-10-15T23:55:55.873Z,0.80
2022-10-15T23:58:22.451Z,0.90
